createdAt,value
2023-08-14T00:03:09.574Z,2.75
2023-08-14T00:08:11.117Z,2.70
2023-08-14T00:13:13.562Z,2.28
2023-08-14T00:18:15.183Z,2.22
2023-08-14T00:23:16.694Z,2.05
2023-08-14T00:28:18.424Z,2.70
2023-08-14T00:33:20.281Z,2.60
2023-08-14T00:38:21.970Z,2.20
2023-08-14T00:43:23.878Z,3.10
2023-08-14T00:48:26.500Z,2.90
2023-08-14T00:53:30.349Z,2.80
2023-08-14T00:58:32.384Z,2.95
2023-08-14T01:03:36.361Z,2.28
2023-08-14T01:08:37.991Z,2.00
2023-08-14T01:13:45.310Z,2.97
2023-08-14T01:18:48.208Z,2.03
2023-08-14T01:23:53.776Z,2.10
2023-08-14T01:28:56.295Z,2.15
2023-08-14T01:33:58.264Z,2.90
2023-08-14T01:39:04.777Z,3.50
2023-08-14T01:44:09.304Z,3.80
2023-08-14T01:49:14.838Z,3.60
2023-08-14T01:54:16.451Z,3.47
2023-08-14T01:59:17.999Z,1.85
2023-08-14T02:04:19.521Z,2.47
2023-08-14T02:09:21.045Z,2.28
2023-08-14T02:14:22.649Z,2.33
2023-08-14T02:19:24.410Z,3.67
2023-08-14T02:24:25.932Z,2.20
2023-08-14T02:29:27.478Z,2.30
2023-08-14T02:34:47.022Z,2.50
2023-08-14T02:39:49.085Z,2.60
2023-08-14T02:44:51.836Z,2.20
2023-08-14T02:49:53.500Z,1.83
2023-08-14T02:54:55.075Z,1.90
2023-08-14T02:59:56.665Z,2.13
2023-08-14T03:04:58.228Z,2.03
2023-08-14T03:09:59.849Z,2.10
2023-08-14T03:15:01.345Z,2.35
2023-08-14T03:20:05.291Z,2.60
2023-08-14T03:25:07.225Z,2.35
2023-08-14T03:30:09.114Z,1.98
2023-08-14T03:35:10.838Z,1.83
2023-08-14T03:40:12.607Z,2.10
2023-08-14T03:45:14.200Z,2.25
2023-08-14T03:50:15.806Z,2.10
2023-08-14T03:55:17.437Z,2.15
2023-08-14T04:00:19.006Z,2.35
2023-08-14T04:05:20.773Z,2.25
2023-08-14T04:10:22.353Z,2.08
2023-08-14T04:15:24.185Z,2.00
2023-08-14T04:20:25.764Z,2.17
2023-08-14T04:25:27.394Z,2.58
2023-08-14T04:30:29.040Z,2.08
2023-08-14T04:35:30.807Z,1.90
2023-08-14T04:40:33.804Z,2.20
2023-08-14T04:45:35.614Z,1.63
2023-08-14T04:50:37.209Z,1.70
2023-08-14T04:55:39.105Z,2.10
2023-08-14T05:00:41.065Z,1.98
2023-08-14T05:05:51.146Z,2.42
2023-08-14T05:10:53.490Z,2.15
2023-08-14T05:16:06.761Z,2.05
2023-08-14T05:21:10.165Z,2.20
2023-08-14T05:26:11.696Z,2.55
2023-08-14T05:31:13.300Z,1.85
2023-08-14T05:36:14.936Z,1.95
2023-08-14T05:41:17.431Z,2.78
2023-08-14T05:46:20.226Z,2.45
2023-08-14T05:51:21.770Z,3.60
2023-08-14T05:56:23.316Z,3.80
2023-08-14T06:01:25.329Z,4.05
2023-08-14T06:06:27.650Z,3.65
2023-08-14T06:11:29.181Z,2.53
2023-08-14T06:16:30.857Z,4.00
2023-08-14T06:21:32.412Z,2.95
2023-08-14T06:26:33.947Z,3.70
2023-08-14T06:31:35.467Z,3.15
2023-08-14T06:36:37.001Z,3.03
2023-08-14T06:41:38.562Z,3.72
2023-08-14T06:46:41.169Z,3.45
2023-08-14T06:51:42.737Z,3.83
2023-08-14T06:56:44.292Z,4.30
2023-08-14T07:01:45.864Z,4.45
2023-08-14T07:06:47.365Z,3.20
2023-08-14T07:17:19.321Z,2.75
2023-08-14T07:22:21.401Z,2.90
2023-08-14T07:27:24.493Z,2.45
2023-08-14T07:32:26.169Z,2.58
2023-08-14T07:37:27.704Z,2.80
2023-08-14T07:42:29.275Z,2.42
2023-08-14T07:47:30.908Z,2.30
2023-08-14T07:52:32.444Z,2.33
2023-08-14T07:57:34.596Z,2.50
2023-08-14T08:02:36.098Z,2.08
2023-08-14T08:07:37.671Z,2.30
2023-08-14T08:12:39.206Z,1.98
2023-08-14T08:17:40.807Z,1.80
2023-08-14T08:22:42.342Z,2.10
2023-08-14T08:27:43.944Z,2.08
2023-08-14T08:32:45.522Z,1.90
2023-08-14T08:37:47.275Z,2.65
2023-08-14T08:42:49.377Z,2.35
2023-08-14T08:47:52.669Z,2.30
2023-08-14T08:52:55.386Z,1.83
2023-08-14T08:57:59.531Z,2.72
2023-08-14T09:03:01.245Z,2.47
2023-08-14T09:08:03.803Z,2.33
2023-08-14T09:13:09.889Z,2.90
2023-08-14T09:18:12.100Z,2.70
2023-08-14T09:23:13.773Z,3.03
2023-08-14T09:28:18.168Z,2.53
2023-08-14T09:33:20.730Z,3.22
2023-08-14T09:38:23.272Z,2.83
2023-08-14T09:43:25.932Z,3.03
2023-08-14T09:48:47.726Z,3.00
2023-08-14T09:53:57.547Z,3.13
2023-08-14T09:58:59.245Z,3.05
2023-08-14T10:04:05.596Z,2.90
2023-08-14T10:09:07.272Z,3.10
2023-08-14T10:14:12.752Z,3.08
2023-08-14T10:19:46.970Z,2.85
2023-08-14T10:24:50.317Z,2.95
2023-08-14T10:29:52.354Z,3.53
2023-08-14T10:34:55.673Z,2.85
2023-08-14T10:40:20.072Z,3.80
2023-08-14T10:45:24.114Z,3.80
2023-08-14T10:50:29.055Z,3.67
2023-08-14T10:55:42.269Z,3.20
2023-08-14T11:00:45.758Z,3.28
2023-08-14T11:05:47.780Z,3.47
2023-08-14T11:10:50.320Z,3.17
2023-08-14T11:15:51.990Z,3.33
2023-08-14T11:20:53.552Z,3.15
2023-08-14T11:25:56.155Z,3.25
2023-08-14T11:30:57.784Z,3.20
2023-08-14T11:36:04.155Z,3.10
2023-08-14T11:41:13.262Z,3.30
2023-08-14T11:46:15.023Z,3.17
2023-08-14T11:51:16.665Z,3.92
2023-08-14T11:56:18.554Z,3.03
2023-08-14T12:01:20.843Z,3.60
2023-08-14T12:06:23.361Z,3.03
2023-08-14T12:11:24.903Z,3.10
2023-08-14T12:16:28.799Z,3.30
2023-08-14T12:21:30.735Z,4.05
2023-08-14T12:26:44.661Z,3.85
2023-08-14T12:31:47.724Z,3.70
2023-08-14T12:36:49.503Z,3.60
2023-08-14T12:41:56.350Z,3.75
2023-08-14T12:46:58.346Z,3.50
2023-08-14T12:52:02.553Z,3.67
2023-08-14T13:02:10.570Z,3.90
2023-08-14T13:07:12.120Z,3.33
2023-08-14T13:12:13.625Z,3.63
2023-08-14T13:17:15.185Z,4.35
2023-08-14T13:22:17.185Z,3.47
2023-08-14T13:27:19.094Z,3.90
2023-08-14T13:32:21.254Z,3.15
2023-08-14T13:37:23.020Z,3.97
2023-08-14T13:42:24.581Z,4.00
2023-08-14T13:47:29.250Z,3.42
2023-08-14T13:52:35.389Z,4.00
2023-08-14T13:57:37.846Z,3.08
2023-08-14T14:02:40.668Z,3.72
2023-08-14T14:07:47.441Z,3.42
2023-08-14T14:13:02.320Z,3.28
2023-08-14T14:18:04.556Z,3.22
2023-08-14T14:23:06.165Z,3.47
2023-08-14T14:28:07.818Z,3.53
2023-08-14T14:33:09.349Z,3.45
2023-08-14T14:38:10.987Z,3.97
2023-08-14T14:43:12.932Z,3.70
2023-08-14T14:48:14.464Z,3.55
2023-08-14T14:53:15.982Z,3.90
2023-08-14T14:58:17.732Z,4.35
2023-08-14T15:03:19.663Z,3.58
2023-08-14T15:08:21.631Z,4.20
2023-08-14T15:13:23.987Z,4.20
2023-08-14T15:18:25.613Z,3.83
2023-08-14T15:23:27.198Z,4.03
2023-08-14T15:28:28.706Z,3.72
2023-08-14T15:33:30.230Z,4.82
2023-08-14T15:38:31.779Z,4.75
2023-08-14T15:43:33.310Z,4.18
2023-08-14T15:48:34.892Z,4.00
2023-08-14T15:53:36.439Z,4.20
2023-08-14T15:58:38.986Z,3.92
2023-08-14T16:03:40.611Z,3.92
2023-08-14T16:08:42.181Z,3.60
2023-08-14T16:13:43.759Z,3.67
2023-08-14T16:18:45.265Z,3.53
2023-08-14T16:23:46.774Z,3.20
2023-08-14T16:28:48.362Z,3.33
2023-08-14T16:33:50.016Z,4.10
2023-08-14T16:38:51.519Z,1.80
2023-08-14T16:43:53.041Z,1.33
2023-08-14T16:48:54.610Z,1.80
2023-08-14T16:53:56.456Z,1.48
2023-08-14T16:58:57.966Z,1.50
2023-08-14T17:03:59.504Z,1.67
2023-08-14T17:09:02.727Z,1.95
2023-08-14T17:14:04.774Z,1.58
2023-08-14T17:19:06.354Z,2.40
2023-08-14T17:24:08.107Z,1.92
2023-08-14T17:29:09.823Z,1.95
2023-08-14T17:34:11.360Z,2.03
2023-08-14T17:39:12.891Z,2.00
2023-08-14T17:44:14.496Z,1.90
2023-08-14T17:49:16.111Z,2.10
2023-08-14T17:54:17.641Z,1.85
2023-08-14T17:59:19.189Z,2.17
2023-08-14T18:04:20.730Z,1.80
2023-08-14T18:09:22.264Z,1.73
2023-08-14T18:14:23.984Z,1.60
2023-08-14T18:19:29.630Z,1.90
2023-08-14T18:24:31.688Z,1.83
2023-08-14T18:29:33.211Z,1.42
2023-08-14T18:34:34.764Z,1.58
2023-08-14T18:39:36.446Z,2.40
2023-08-14T18:44:37.973Z,1.52
2023-08-14T18:49:44.227Z,2.53
2023-08-14T18:54:47.245Z,2.05
2023-08-14T18:59:48.900Z,1.60
2023-08-14T19:04:50.493Z,1.75
2023-08-14T19:09:52.038Z,1.92
2023-08-14T19:14:53.708Z,2.10
2023-08-14T19:19:55.547Z,1.90
2023-08-14T19:24:57.091Z,2.17
2023-08-14T19:29:58.661Z,1.80
2023-08-14T19:35:00.854Z,1.67
2023-08-14T19:40:02.371Z,2.08
2023-08-14T19:45:04.650Z,1.58
2023-08-14T19:50:06.555Z,1.60
2023-08-14T19:55:08.718Z,1.48
2023-08-14T20:00:10.979Z,1.63
2023-08-14T20:05:13.078Z,1.60
2023-08-14T20:10:14.701Z,1.80
2023-08-14T20:15:16.271Z,1.92
2023-08-14T20:20:18.682Z,2.17
2023-08-14T20:25:20.236Z,2.20
2023-08-14T20:30:21.798Z,2.40
2023-08-14T20:35:23.554Z,2.25
2023-08-14T20:40:25.101Z,2.28
2023-08-14T20:45:26.673Z,2.72
2023-08-14T20:50:28.221Z,3.03
2023-08-14T20:55:29.849Z,2.47
2023-08-14T21:00:31.361Z,3.10
2023-08-14T21:05:32.918Z,2.15
2023-08-14T21:10:37.914Z,2.88
2023-08-14T21:15:39.633Z,3.08
2023-08-14T21:20:42.485Z,2.78
2023-08-14T21:25:47.829Z,2.42
2023-08-14T21:30:58.650Z,2.70
2023-08-14T21:36:00.270Z,2.63
2023-08-14T21:41:04.889Z,3.30
2023-08-14T21:46:06.578Z,3.60
2023-08-14T21:51:08.173Z,2.70
2023-08-14T21:56:09.730Z,3.50
2023-08-14T22:01:11.293Z,3.60
2023-08-14T22:06:12.900Z,2.90
2023-08-14T22:11:14.425Z,3.33
2023-08-14T22:16:15.987Z,3.40
2023-08-14T22:21:17.659Z,3.40
2023-08-14T22:26:19.238Z,2.67
2023-08-14T22:31:20.760Z,3.35
2023-08-14T22:36:22.292Z,3.25
2023-08-14T22:41:23.828Z,3.95
2023-08-14T22:46:25.357Z,3.88
2023-08-14T22:51:27.220Z,3.50
2023-08-14T22:56:28.729Z,4.20
2023-08-14T23:01:30.352Z,3.78
2023-08-14T23:06:31.982Z,4.65
2023-08-14T23:11:34.917Z,3.78
2023-08-14T23:16:36.656Z,4.97
2023-08-14T23:21:38.422Z,3.72
2023-08-14T23:26:40.060Z,5.03
2023-08-14T23:31:41.698Z,4.95
2023-08-14T23:36:43.225Z,4.13
2023-08-14T23:41:44.915Z,4.20
2023-08-14T23:46:46.548Z,2.13
2023-08-14T23:51:48.144Z,1.60
2023-08-14T23:56:49.709Z,1.88
